createdAt,value
2018-11-22T12:17:06.574Z,97121.70
2018-11-22T12:19:33.756Z,97119.63
2018-11-22T12:22:00.938Z,97122.49
2018-11-22T12:24:28.513Z,97124.58
2018-11-22T12:26:55.649Z,97124.34
2018-11-22T12:29:22.815Z,97118.05
2018-11-22T12:31:49.966Z,97121.19
2018-11-22T12:34:22.247Z,97117.53
2018-11-22T12:36:55.238Z,97113.88
2018-11-22T12:39:22.514Z,97115.44
2018-11-22T12:41:49.733Z,97118.58
2018-11-22T12:44:16.881Z,97117.25
2018-11-22T12:46:44.081Z,97112.56
2018-11-22T12:49:11.304Z,97113.85
2018-11-22T12:51:38.461Z,97115.44
2018-11-22T12:54:05.695Z,97111.25
2018-11-22T12:56:32.830Z,97105.47
2018-11-22T12:59:00.047Z,97108.62
2018-11-22T13:01:27.261Z,97108.09
2018-11-22T13:03:54.410Z,97110.72
2018-11-22T13:06:21.634Z,97106.81
2018-11-22T13:08:48.805Z,97105.23
2018-11-22T13:11:16.000Z,97104.98
2018-11-22T13:13:43.198Z,97108.12
2018-11-22T13:16:10.406Z,97102.88
2018-11-22T13:18:37.589Z,97113.09
2018-11-22T13:21:05.188Z,97118.04
2018-11-22T13:23:32.425Z,97108.09
2018-11-22T13:25:59.672Z,97114.38
2018-11-22T13:28:26.865Z,97117.27
2018-11-22T13:30:54.193Z,97120.94
2018-11-22T13:33:21.413Z,97121.72
2018-11-22T13:35:48.630Z,97125.38
2018-11-22T13:38:15.796Z,97133.73
2018-11-22T13:40:43.041Z,97130.33
2018-11-22T13:43:10.213Z,97132.96
2018-11-22T13:45:37.373Z,97141.84
2018-11-22T13:48:05.751Z,97136.88
2018-11-22T13:50:32.944Z,97133.47
2018-11-22T13:53:01.631Z,97134.27
2018-11-22T13:55:28.800Z,97132.16
2018-11-22T13:57:56.112Z,97134.25
2018-11-22T14:00:25.518Z,97130.33
2018-11-22T14:02:54.362Z,97136.35
2018-11-22T14:05:21.562Z,97133.98
2018-11-22T14:07:49.012Z,97133.22
2018-11-22T14:10:17.679Z,97127.45
2018-11-22T14:12:44.965Z,97131.38
2018-11-22T14:15:15.486Z,97130.08
2018-11-22T14:17:43.428Z,97126.66
2018-11-22T14:20:13.347Z,97130.59
2018-11-22T14:22:40.573Z,97137.41
2018-11-22T14:25:08.668Z,97138.97
2018-11-22T14:27:35.957Z,97132.17
2018-11-22T14:30:03.636Z,97136.35
2018-11-22T14:32:30.844Z,97136.62
2018-11-22T14:35:00.527Z,97136.62
2018-11-22T14:37:26.529Z,97133.22
2018-11-22T14:39:53.652Z,97132.44
2018-11-22T14:42:20.893Z,97139.23
2018-11-22T14:44:48.074Z,97136.62
2018-11-22T14:47:16.000Z,97137.66
2018-11-22T14:49:43.161Z,97143.41
2018-11-22T14:52:10.597Z,97144.99
2018-11-22T14:54:37.772Z,97145.52
2018-11-22T14:57:05.069Z,97141.31
2018-11-22T14:59:32.270Z,97135.83
2018-11-22T15:01:59.481Z,97141.59
2018-11-22T15:04:27.725Z,97138.20
2018-11-22T15:06:54.922Z,97146.83
2018-11-22T15:09:22.070Z,97147.08
2018-11-22T15:11:49.222Z,97151.52
2018-11-22T15:14:16.365Z,97151.52
2018-11-22T15:16:43.549Z,97155.70
2018-11-22T15:19:10.741Z,97152.05
2018-11-22T15:21:37.931Z,97151.27
2018-11-22T15:24:05.137Z,97152.83
2018-11-22T15:26:32.299Z,97150.73
2018-11-22T15:28:59.427Z,97151.00
2018-11-22T15:31:28.135Z,97148.64
2018-11-22T15:33:55.361Z,97156.77
2018-11-22T15:36:22.545Z,97153.34
2018-11-22T15:38:49.850Z,97159.63
2018-11-22T15:41:17.025Z,97158.58
2018-11-22T15:43:44.213Z,97159.11
2018-11-22T15:46:11.417Z,97160.91
2018-11-22T15:48:38.692Z,97158.04
2018-11-22T15:51:05.895Z,97165.39
2018-11-22T15:53:33.140Z,97165.13
2018-11-22T15:56:00.269Z,97166.42
2018-11-22T15:58:27.850Z,97170.59
2018-11-22T16:00:55.050Z,97167.98
2018-11-22T16:03:22.276Z,97175.56
2018-11-22T16:05:49.531Z,97179.75
2018-11-22T16:08:16.790Z,97178.18
2018-11-22T16:10:43.998Z,97182.09
2018-11-22T16:13:11.639Z,97182.36
2018-11-22T16:15:45.874Z,97182.36
2018-11-22T16:18:13.149Z,97183.66
2018-11-22T16:20:40.388Z,97188.64
2018-11-22T16:23:07.567Z,97188.87
2018-11-22T16:25:34.874Z,97189.91
2018-11-22T16:28:02.105Z,97183.15
2018-11-22T16:30:30.390Z,97177.37
2018-11-22T16:32:57.575Z,97183.15
2018-11-22T16:35:28.776Z,97184.42
2018-11-22T16:37:52.873Z,97181.29
2018-11-22T16:40:21.593Z,97184.69
2018-11-22T16:42:49.752Z,97184.42
2018-11-22T16:45:22.654Z,97183.64
2018-11-22T16:47:50.074Z,97182.34
2018-11-22T16:50:18.920Z,97178.41
2018-11-22T16:52:46.102Z,97179.72
2018-11-22T16:55:13.747Z,97176.59
2018-11-22T16:57:41.984Z,97177.89
2018-11-22T17:00:18.614Z,97177.08
2018-11-22T17:02:46.718Z,97179.43
2018-11-22T17:05:14.772Z,97180.73
2018-11-22T17:07:42.335Z,97183.09
2018-11-22T17:10:11.438Z,97183.61
2018-11-22T17:12:38.703Z,97176.03
2018-11-22T17:15:08.917Z,97179.70
2018-11-22T17:17:36.206Z,97184.92
2018-11-22T17:20:03.610Z,97186.26
2018-11-22T17:22:30.838Z,97193.05
2018-11-22T17:24:58.056Z,97190.70
2018-11-22T17:27:25.328Z,97186.26
2018-11-22T17:29:52.551Z,97187.02
2018-11-22T17:32:19.832Z,97188.34
2018-11-22T17:34:47.145Z,97180.48
2018-11-22T17:37:14.358Z,97180.22
2018-11-22T17:39:41.589Z,97179.17
2018-11-22T17:42:08.795Z,97177.57
2018-11-22T17:44:36.046Z,97173.91
2018-11-22T17:47:03.303Z,97176.00
2018-11-22T17:49:30.592Z,97173.13
2018-11-22T17:51:58.020Z,97173.91
2018-11-22T17:54:25.288Z,97173.13
2018-11-22T17:56:52.527Z,97176.26
2018-11-22T17:59:19.956Z,97172.86
2018-11-22T18:01:47.426Z,97179.92
2018-11-22T18:04:14.692Z,97174.95
2018-11-22T18:06:42.810Z,97177.31
2018-11-22T18:09:10.659Z,97172.60
2018-11-22T18:11:37.893Z,97178.61
2018-11-22T18:14:07.122Z,97181.22
2018-11-22T18:16:34.310Z,97175.73
2018-11-22T18:19:01.579Z,97176.00
2018-11-22T18:21:28.813Z,97181.23
2018-11-22T18:23:56.358Z,97177.05
2018-11-22T18:26:23.606Z,97180.18
2018-11-22T18:28:50.863Z,97178.09
2018-11-22T18:31:18.124Z,97180.44
2018-11-22T18:33:45.381Z,97182.53
2018-11-22T18:36:12.706Z,97186.98
2018-11-22T18:38:39.958Z,97191.41
2018-11-22T18:41:07.137Z,97189.33
2018-11-22T18:43:35.421Z,97192.98
2018-11-22T18:46:02.056Z,97198.47
2018-11-22T18:48:29.245Z,97197.42
2018-11-22T18:50:58.025Z,97195.08
2018-11-22T18:53:25.249Z,97185.14
2018-11-22T18:55:52.984Z,97189.06
2018-11-22T18:58:20.220Z,97188.80
2018-11-22T19:00:47.480Z,97186.70
2018-11-22T19:03:17.302Z,97187.23
2018-11-22T19:05:44.710Z,97188.27
2018-11-22T19:08:12.091Z,97196.37
2018-11-22T19:10:40.413Z,97191.38
2018-11-22T19:13:08.669Z,97201.83
2018-11-22T19:15:38.371Z,97193.47
2018-11-22T19:18:06.497Z,97192.97
2018-11-22T19:20:35.254Z,97189.81
2018-11-22T19:23:03.396Z,97190.33
2018-11-22T19:25:30.703Z,97184.05
2018-11-22T19:27:59.019Z,97194.77
2018-11-22T19:30:28.748Z,97182.48
2018-11-22T19:32:57.370Z,97190.84
2018-11-22T19:35:26.433Z,97193.67
2018-11-22T19:37:53.863Z,97200.98
2018-11-22T19:40:27.850Z,97196.84
2018-11-22T19:42:56.704Z,97194.49
2018-11-22T19:45:25.989Z,97196.29
2018-11-22T19:47:53.339Z,97195.75
2018-11-22T19:50:22.136Z,97199.42
2018-11-22T19:52:51.071Z,97196.28
2018-11-22T19:55:22.662Z,97199.16
2018-11-22T19:57:52.415Z,97197.84
2018-11-22T20:00:21.693Z,97198.36
2018-11-22T20:02:50.766Z,97198.63
2018-11-22T20:05:19.170Z,97203.33
2018-11-22T20:07:50.656Z,97204.89
2018-11-22T20:10:20.595Z,97210.38
2018-11-22T20:12:50.175Z,97217.95
2018-11-22T20:15:18.820Z,97214.56
2018-11-22T20:17:52.398Z,97216.92
2018-11-22T20:20:20.426Z,97219.27
2018-11-22T20:22:48.854Z,97225.89
2018-11-22T20:25:16.296Z,97225.38
2018-11-22T20:27:47.811Z,97225.80
2018-11-22T20:30:18.669Z,97222.13
2018-11-22T20:32:46.201Z,97200.66
2018-11-22T20:35:15.658Z,97221.02
2018-11-22T20:37:43.645Z,97224.16
2018-11-22T20:40:12.145Z,97227.03
2018-11-22T20:42:39.810Z,97222.34
2018-11-22T20:45:09.148Z,97227.62
2018-11-22T20:47:36.619Z,97231.73
2018-11-22T20:50:05.495Z,97234.59
2018-11-22T20:52:33.416Z,97234.07
2018-11-22T20:55:00.618Z,97228.33
2018-11-22T20:57:28.405Z,97230.94
2018-11-22T20:59:55.574Z,97224.41
2018-11-22T21:02:22.865Z,97227.79
2018-11-22T21:04:50.185Z,97225.71
2018-11-22T21:07:17.409Z,97228.78
2018-11-22T21:09:44.637Z,97228.80
2018-11-22T21:12:11.888Z,97227.20
2018-11-22T21:14:39.007Z,97231.91
2018-11-22T21:17:06.198Z,97225.39
2018-11-22T21:19:33.432Z,97229.05
2018-11-22T21:22:00.697Z,97234.80
2018-11-22T21:24:27.993Z,97238.24
2018-11-22T21:26:55.326Z,97235.33
2018-11-22T21:29:22.589Z,97240.84
2018-11-22T21:31:49.914Z,97233.53
2018-11-22T21:34:17.295Z,97234.58
2018-11-22T21:36:44.563Z,97236.67
2018-11-22T21:39:12.574Z,97249.73
2018-11-22T21:41:39.801Z,97243.99
2018-11-22T21:44:07.572Z,97235.64
2018-11-22T21:46:34.899Z,97234.08
2018-11-22T21:49:02.941Z,97240.34
2018-11-22T21:51:39.253Z,97238.00
2018-11-22T21:53:59.470Z,97251.06
2018-11-22T21:56:26.714Z,97253.73
2018-11-22T21:58:53.888Z,97253.02
2018-11-22T22:01:21.193Z,97245.42
2018-11-22T22:03:48.405Z,97248.89
2018-11-22T22:06:15.970Z,97247.59
2018-11-22T22:08:43.241Z,97245.45
2018-11-22T22:11:10.618Z,97240.95
2018-11-22T22:13:37.888Z,97242.44
2018-11-22T22:16:05.437Z,97247.14
2018-11-22T22:18:32.598Z,97245.89
2018-11-22T22:20:59.896Z,97243.02
2018-11-22T22:23:27.670Z,97250.28
2018-11-22T22:25:54.929Z,97239.31
2018-11-22T22:28:22.118Z,97236.94
2018-11-22T22:30:49.286Z,97234.53
2018-11-22T22:33:16.434Z,97234.28
2018-11-22T22:35:43.550Z,97234.77
2018-11-22T22:38:10.725Z,97236.06
2018-11-22T22:40:37.870Z,97233.72
2018-11-22T22:43:05.073Z,97232.42
2018-11-22T22:45:33.551Z,97230.75
2018-11-22T22:48:00.765Z,97228.86
2018-11-22T22:50:28.945Z,97229.91
2018-11-22T22:52:57.342Z,97226.76
2018-11-22T22:55:24.586Z,97232.05
2018-11-22T22:57:51.915Z,97233.09
2018-11-22T23:00:26.005Z,97232.84
2018-11-22T23:02:55.374Z,97236.70
2018-11-22T23:05:23.341Z,97238.05
2018-11-22T23:07:50.668Z,97239.31
2018-11-22T23:10:18.450Z,97232.00
2018-11-22T23:12:45.662Z,97229.23
2018-11-22T23:15:13.930Z,97226.33
2018-11-22T23:17:41.449Z,97222.90
2018-11-22T23:20:11.453Z,97213.70
2018-11-22T23:22:39.029Z,97218.35
2018-11-22T23:25:06.673Z,97217.05
2018-11-22T23:27:33.840Z,97217.34
2018-11-22T23:30:01.057Z,97212.92
2018-11-22T23:32:28.257Z,97209.02
2018-11-22T23:34:55.470Z,97213.98
2018-11-22T23:37:22.938Z,97216.38
2018-11-22T23:39:50.143Z,97215.33
2018-11-22T23:42:17.306Z,97218.73
2018-11-22T23:44:44.452Z,97216.12
2018-11-22T23:47:11.630Z,97219.52
2018-11-22T23:49:38.776Z,97224.73
2018-11-22T23:52:06.001Z,97218.16
2018-11-22T23:54:33.169Z,97224.23
2018-11-22T23:57:00.392Z,97221.94
2018-11-22T23:59:27.545Z,97227.09
